Terminal Aerodrome Forecast
Issued by NWS

Home | Current Version | Previous Version | Text Only | Print | Product List | Glossary On
Versions: 1 2 3 4 5 6 7 8 9 10 11 12 13 14 15 16 17 18 19
000
FTUS44 KLIX 121900 AAA
TAFMCB
TAF AMD
KMCB 121911Z 1219/1318 20005KT P6SM SCT035 BKN070
      TEMPO 1219/1222 3SM TSRA BKN025CB
     FM130000 VRB03KT P6SM SCT250=

USA.gov is the U.S. government's official web portal to all federal, state and local government web resources and services.